createdAt,value
2023-04-11T00:01:01.870Z,99999.34
2023-04-11T00:03:30.175Z,99992.25
2023-04-11T00:05:58.761Z,99981.38
2023-04-11T00:08:27.257Z,100006.09
2023-04-11T00:10:55.397Z,99995.56
2023-04-11T00:13:24.105Z,99990.78
2023-04-11T00:15:55.882Z,99985.34
2023-04-11T00:18:25.635Z,100008.81
2023-04-11T00:20:53.829Z,100000.13
2023-04-11T00:23:22.387Z,100019.56
2023-04-11T00:25:51.348Z,100021.94
2023-04-11T00:28:20.445Z,100012.97
2023-04-11T00:30:48.498Z,100008.84
2023-04-11T00:33:17.319Z,100004.03
2023-04-11T00:35:45.795Z,100011.88
2023-04-11T00:38:15.335Z,100019.34
2023-04-11T00:40:44.276Z,100010.09
2023-04-11T00:43:13.421Z,100030.88
2023-04-11T00:45:41.759Z,100026.72
2023-04-11T00:48:10.991Z,100033.84
2023-04-11T00:50:42.199Z,100056.47
2023-04-11T00:53:13.280Z,100065.00
2023-04-11T00:55:41.628Z,100059.22
2023-04-11T00:58:10.694Z,100057.66
2023-04-11T01:00:39.399Z,100081.97
2023-04-11T01:03:09.070Z,100076.38
2023-04-11T01:05:38.070Z,100083.88
2023-04-11T01:08:08.323Z,100072.47
2023-04-11T01:10:38.447Z,100079.84
2023-04-11T01:13:07.311Z,100104.69
2023-04-11T01:15:36.067Z,100085.81
2023-04-11T01:18:05.796Z,100090.81
2023-04-11T01:20:34.906Z,100062.63
2023-04-11T01:23:03.602Z,100035.97
2023-04-11T01:25:32.252Z,100038.38
2023-04-11T01:28:01.818Z,100019.22
2023-04-11T01:30:30.846Z,100054.53
2023-04-11T01:32:59.149Z,100064.91
2023-04-11T01:35:27.953Z,100070.00
2023-04-11T01:37:56.702Z,100067.59
2023-04-11T01:40:26.215Z,100058.59
2023-04-11T01:42:55.826Z,100044.97
2023-04-11T01:45:25.764Z,100042.44
2023-04-11T01:47:57.293Z,100042.63
2023-04-11T01:50:25.936Z,100054.09
2023-04-11T01:52:55.457Z,100067.59
2023-04-11T01:55:24.064Z,100074.75
2023-04-11T01:57:52.278Z,100065.69
2023-04-11T02:00:23.003Z,100055.66
2023-04-11T02:02:52.073Z,100060.41
2023-04-11T02:05:20.733Z,100072.69
2023-04-11T02:07:49.213Z,100061.38
2023-04-11T02:10:20.008Z,100051.78
2023-04-11T02:12:48.560Z,100059.56
2023-04-11T02:15:17.741Z,100054.63
2023-04-11T02:17:49.705Z,100058.16
2023-04-11T02:20:20.643Z,100053.06
2023-04-11T02:22:49.057Z,100056.78
2023-04-11T02:25:17.338Z,100050.72
2023-04-11T02:27:47.385Z,100049.84
2023-04-11T02:30:17.145Z,100064.09
2023-04-11T02:32:46.818Z,100054.19
2023-04-11T02:35:16.752Z,100057.72
2023-04-11T02:37:45.087Z,100063.00
2023-04-11T02:40:13.386Z,100061.56
2023-04-11T02:42:43.388Z,100057.72
2023-04-11T02:45:24.137Z,100096.44
2023-04-11T02:47:52.585Z,100088.56
2023-04-11T02:50:20.848Z,100085.03
2023-04-11T02:52:52.812Z,100079.75
2023-04-11T02:55:25.397Z,100101.84
2023-04-11T02:57:56.383Z,100113.50
2023-04-11T03:00:31.066Z,100113.75
2023-04-11T03:03:07.067Z,100093.78
2023-04-11T03:05:41.113Z,100081.34
2023-04-11T03:08:09.399Z,100084.78
2023-04-11T03:10:42.606Z,100098.16
2023-04-11T03:13:12.876Z,100101.91
2023-04-11T03:15:41.945Z,100125.53
2023-04-11T03:18:12.609Z,100134.53
2023-04-11T03:20:44.729Z,100129.41
2023-04-11T03:23:15.506Z,100136.84
2023-04-11T03:25:48.198Z,100125.88
2023-04-11T03:28:17.490Z,100128.13
2023-04-11T03:30:46.478Z,100126.63
2023-04-11T03:33:19.969Z,100144.00
2023-04-11T03:35:48.193Z,100139.94
2023-04-11T03:38:16.613Z,100139.75
2023-04-11T03:40:45.062Z,100146.06
2023-04-11T03:43:17.998Z,100134.91
2023-04-11T03:45:47.168Z,100132.50
2023-04-11T03:48:30.127Z,100121.25
2023-04-11T03:51:04.453Z,100136.03
2023-04-11T03:53:41.656Z,100132.56
2023-04-11T03:56:32.725Z,100120.47
2023-04-11T03:59:02.035Z,100113.56
2023-04-11T04:01:40.486Z,100103.00
2023-04-11T04:04:14.066Z,100108.28
2023-04-11T04:06:46.149Z,100124.41
2023-04-11T04:09:15.157Z,100131.91
2023-04-11T04:11:49.214Z,100110.13
2023-04-11T04:14:20.043Z,100123.25
2023-04-11T04:16:49.584Z,100124.19
2023-04-11T04:19:19.039Z,100138.66
2023-04-11T04:21:50.249Z,100125.69
2023-04-11T04:24:20.488Z,100133.78
2023-04-11T04:27:10.467Z,100118.84
2023-04-11T04:30:03.590Z,100140.09
2023-04-11T04:32:54.785Z,100123.19
2023-04-11T04:35:26.994Z,100109.34
2023-04-11T04:37:56.415Z,100125.00
2023-04-11T04:40:46.327Z,100122.09
2023-04-11T04:43:24.265Z,100109.66
2023-04-11T04:46:08.387Z,100137.97
2023-04-11T04:48:48.851Z,100152.38
2023-04-11T04:51:17.545Z,100161.31
2023-04-11T04:53:46.371Z,100178.16
2023-04-11T04:56:18.451Z,100191.84
2023-04-11T04:58:48.630Z,100200.84
2023-04-11T05:01:18.667Z,100191.66
2023-04-11T05:03:59.220Z,100184.50
2023-04-11T05:06:45.062Z,100185.69
2023-04-11T05:09:13.648Z,100189.00
2023-04-11T05:11:41.961Z,100194.47
2023-04-11T05:14:11.361Z,100225.38
2023-04-11T05:16:42.440Z,100243.94
2023-04-11T05:19:13.400Z,100239.81
2023-04-11T05:21:47.735Z,100240.78
2023-04-11T05:24:16.899Z,100237.97
2023-04-11T05:26:45.967Z,100240.72
2023-04-11T05:29:18.322Z,100234.47
2023-04-11T05:31:48.517Z,100245.03
2023-04-11T05:34:16.723Z,100260.34
2023-04-11T05:36:47.320Z,100262.97
2023-04-11T05:39:18.651Z,100266.41
2023-04-11T05:41:51.415Z,100253.81
2023-04-11T05:44:21.568Z,100251.16
2023-04-11T05:46:50.698Z,100265.09
2023-04-11T05:49:19.810Z,100257.22
2023-04-11T05:51:48.786Z,100276.50
2023-04-11T05:54:35.959Z,100278.16
2023-04-11T05:57:06.302Z,100267.19
2023-04-11T05:59:37.850Z,100286.69
2023-04-11T06:02:07.905Z,100293.56
2023-04-11T06:04:36.339Z,100283.22
2023-04-11T06:07:06.663Z,100279.53
2023-04-11T06:09:36.243Z,100303.25
2023-04-11T06:12:05.667Z,100295.06
2023-04-11T06:14:38.702Z,100304.81
2023-04-11T06:17:14.826Z,100295.06
2023-04-11T06:19:43.429Z,100298.53
2023-04-11T06:22:11.875Z,100298.59
2023-04-11T06:24:45.750Z,100296.94
2023-04-11T06:27:16.512Z,100311.81
2023-04-11T06:29:46.999Z,100319.09
2023-04-11T06:32:20.010Z,100330.66
2023-04-11T06:34:48.718Z,100327.13
2023-04-11T06:37:17.229Z,100326.13
2023-04-11T06:39:48.931Z,100319.19
2023-04-11T06:42:17.384Z,100336.75
2023-04-11T06:44:47.002Z,100344.53
2023-04-11T06:47:16.010Z,100339.06
2023-04-11T06:49:44.062Z,100333.53
2023-04-11T06:52:12.796Z,100353.06
2023-04-11T06:54:42.492Z,100345.19
2023-04-11T06:57:10.821Z,100344.00
2023-04-11T06:59:39.038Z,100344.22
2023-04-11T07:02:08.003Z,100378.31
2023-04-11T07:04:38.498Z,100362.28
2023-04-11T07:07:06.906Z,100382.41
2023-04-11T07:09:39.744Z,100357.66
2023-04-11T07:12:09.799Z,100365.59
2023-04-11T07:14:42.958Z,100383.69
2023-04-11T07:17:10.979Z,100363.19
2023-04-11T07:19:42.111Z,100357.56
2023-04-11T07:22:10.129Z,100367.53
2023-04-11T07:24:39.084Z,100373.38
2023-04-11T07:27:07.661Z,100372.91
2023-04-11T07:29:37.819Z,100376.91
2023-04-11T07:32:06.423Z,100352.13
2023-04-11T07:34:36.845Z,100367.56
2023-04-11T07:37:05.482Z,100359.34
2023-04-11T07:39:36.896Z,100344.63
2023-04-11T07:42:06.343Z,100362.97
2023-04-11T07:44:34.567Z,100359.75
2023-04-11T07:47:03.786Z,100352.81
2023-04-11T07:49:32.030Z,100353.44
2023-04-11T07:52:01.089Z,100359.66
2023-04-11T07:54:31.048Z,100365.56
2023-04-11T07:57:00.703Z,100362.00
2023-04-11T07:59:29.060Z,100377.84
2023-04-11T08:02:05.530Z,100377.75
2023-04-11T08:04:37.246Z,100373.69
2023-04-11T08:07:11.867Z,100366.13
2023-04-11T08:09:42.589Z,100376.50
2023-04-11T08:12:13.714Z,100380.13
2023-04-11T08:14:41.841Z,100393.28
2023-04-11T08:17:21.056Z,100385.88
2023-04-11T08:19:57.916Z,100388.31
2023-04-11T08:22:26.767Z,100379.41
2023-04-11T08:24:56.495Z,100385.06
2023-04-11T08:27:25.270Z,100396.16
2023-04-11T08:29:55.269Z,100382.00
2023-04-11T08:32:23.331Z,100395.44
2023-04-11T08:34:53.559Z,100372.50
2023-04-11T08:37:21.704Z,100389.72
2023-04-11T08:39:50.444Z,100399.88
2023-04-11T08:42:26.965Z,100389.09
2023-04-11T08:45:13.826Z,100380.84
2023-04-11T08:47:45.552Z,100396.25
2023-04-11T08:50:16.267Z,100397.63
2023-04-11T08:52:51.279Z,100391.97
2023-04-11T08:55:19.371Z,100397.00
2023-04-11T08:57:50.146Z,100399.97
2023-04-11T09:00:25.278Z,100388.88
2023-04-11T09:03:06.724Z,100403.50
2023-04-11T09:06:09.111Z,100392.66
2023-04-11T09:08:39.604Z,100402.22
2023-04-11T09:11:07.920Z,100394.56
2023-04-11T09:13:36.740Z,100384.38
2023-04-11T09:16:14.954Z,100376.66
2023-04-11T09:18:47.452Z,100395.31
2023-04-11T09:21:20.016Z,100393.13
2023-04-11T09:23:48.220Z,100395.22
2023-04-11T09:26:35.781Z,100378.94
2023-04-11T09:29:03.881Z,100392.81
2023-04-11T09:31:45.562Z,100389.00
2023-04-11T09:34:26.256Z,100385.13
2023-04-11T09:36:56.675Z,100383.47
2023-04-11T09:39:28.595Z,100372.03
2023-04-11T09:41:58.604Z,100375.25
2023-04-11T09:44:38.594Z,100375.91
2023-04-11T09:47:07.944Z,100387.81
2023-04-11T09:49:37.062Z,100379.75
2023-04-11T09:52:06.752Z,100379.66
2023-04-11T09:54:36.145Z,100374.94
2023-04-11T09:57:06.043Z,100380.78
2023-04-11T09:59:41.545Z,100377.41
2023-04-11T10:02:09.707Z,100382.72
2023-04-11T10:04:41.045Z,100381.47
2023-04-11T10:07:17.164Z,100378.59
2023-04-11T10:09:50.028Z,100390.81
2023-04-11T10:12:35.410Z,100405.97
2023-04-11T10:15:12.907Z,100387.81
2023-04-11T10:17:42.087Z,100396.44
2023-04-11T10:20:32.520Z,100405.28
2023-04-11T10:23:02.128Z,100404.78
2023-04-11T10:25:30.835Z,100392.88
2023-04-11T10:28:07.069Z,100388.03
2023-04-11T10:30:42.800Z,100397.81
2023-04-11T10:33:20.876Z,100392.03
2023-04-11T10:36:05.685Z,100399.75
2023-04-11T10:38:49.790Z,100403.94
2023-04-11T10:41:27.050Z,100385.56
2023-04-11T10:44:23.440Z,100394.97
2023-04-11T10:46:54.711Z,100390.50
2023-04-11T10:49:36.968Z,100393.78
2023-04-11T10:52:24.975Z,100388.47
2023-04-11T10:54:56.962Z,100379.16
2023-04-11T10:57:32.211Z,100390.97
2023-04-11T11:00:12.825Z,100387.06
2023-04-11T11:02:42.620Z,100375.00
2023-04-11T11:05:20.723Z,100382.09
2023-04-11T11:07:50.258Z,100384.94
2023-04-11T11:10:37.484Z,100394.53
2023-04-11T11:13:05.964Z,100399.44
2023-04-11T11:15:50.722Z,100405.56
2023-04-11T11:18:19.335Z,100430.41
2023-04-11T11:20:48.120Z,100420.53
2023-04-11T11:23:17.575Z,100440.97
2023-04-11T11:25:58.120Z,100418.09
2023-04-11T11:30:58.616Z,100413.91
2023-04-11T11:33:27.130Z,100415.78
2023-04-11T11:36:02.511Z,100415.03
2023-04-11T11:38:31.454Z,100417.00
2023-04-11T11:41:00.744Z,100412.84
2023-04-11T11:43:30.273Z,100411.38
2023-04-11T11:46:14.683Z,100417.97
2023-04-11T11:49:00.322Z,100419.59
2023-04-11T11:51:49.765Z,100428.50
2023-04-11T11:54:17.767Z,100417.00
2023-04-11T11:56:54.982Z,100427.22
2023-04-11T11:59:28.566Z,100412.94
2023-04-11T12:01:57.081Z,100422.09
2023-04-11T12:04:25.213Z,100411.53
2023-04-11T12:06:57.473Z,100404.97
2023-04-11T12:09:31.891Z,100422.88
2023-04-11T12:12:04.392Z,100416.34
2023-04-11T12:14:32.900Z,100407.19
2023-04-11T12:17:05.154Z,100410.06
2023-04-11T12:19:33.159Z,100391.00
2023-04-11T12:22:02.953Z,100401.47
2023-04-11T12:24:31.227Z,100419.25
2023-04-11T12:27:06.806Z,100431.97
2023-04-11T12:29:36.140Z,100418.16
2023-04-11T12:32:05.175Z,100410.88
2023-04-11T12:34:35.066Z,100414.84
2023-04-11T12:37:03.932Z,100409.66
2023-04-11T12:39:32.572Z,100407.25
2023-04-11T12:42:01.930Z,100422.56
2023-04-11T12:44:29.883Z,100420.34
2023-04-11T12:46:57.859Z,100428.91
2023-04-11T12:49:26.814Z,100425.34
2023-04-11T12:51:56.024Z,100424.56
2023-04-11T12:54:26.478Z,100418.91
2023-04-11T12:56:58.243Z,100421.22
2023-04-11T12:59:31.366Z,100421.66
2023-04-11T13:02:00.863Z,100432.66
2023-04-11T13:04:30.918Z,100434.88
2023-04-11T13:07:03.972Z,100432.44
2023-04-11T13:09:34.713Z,100426.22
2023-04-11T13:12:03.110Z,100418.53
2023-04-11T13:14:31.308Z,100412.00
2023-04-11T13:17:04.298Z,100408.97
2023-04-11T13:19:34.813Z,100400.63
2023-04-11T13:22:03.428Z,100401.00
2023-04-11T13:24:32.260Z,100398.81
2023-04-11T13:27:00.574Z,100390.66
2023-04-11T13:29:30.364Z,100381.72
2023-04-11T13:32:00.862Z,100380.75
2023-04-11T13:34:31.128Z,100379.22
2023-04-11T13:37:00.349Z,100368.25
2023-04-11T13:39:28.484Z,100381.59
2023-04-11T13:41:57.232Z,100377.94
2023-04-11T13:44:25.296Z,100362.72
2023-04-11T13:46:55.973Z,100361.06
2023-04-11T13:49:26.568Z,100372.56
2023-04-11T13:51:54.621Z,100359.94
2023-04-11T13:54:23.171Z,100361.47
2023-04-11T13:56:51.114Z,100369.53
2023-04-11T13:59:18.948Z,100360.31
2023-04-11T14:01:47.414Z,100361.84
2023-04-11T14:04:19.904Z,100367.72
2023-04-11T14:06:50.151Z,100358.97
2023-04-11T14:09:21.625Z,100366.84
2023-04-11T14:11:53.415Z,100356.47
2023-04-11T14:14:24.477Z,100357.03
2023-04-11T14:16:52.422Z,100356.66
2023-04-11T14:19:24.757Z,100363.56
2023-04-11T14:21:54.927Z,100354.44
2023-04-11T14:24:24.037Z,100349.47
2023-04-11T14:26:52.360Z,100366.63
2023-04-11T14:29:21.753Z,100359.94
2023-04-11T14:31:51.318Z,100361.94
2023-04-11T14:34:23.510Z,100361.75
2023-04-11T14:36:52.754Z,100363.47
2023-04-11T14:39:21.012Z,100348.03
2023-04-11T14:41:49.549Z,100356.56
2023-04-11T14:44:18.201Z,100365.13
2023-04-11T14:46:46.237Z,100358.38
2023-04-11T14:49:14.304Z,100346.78
2023-04-11T14:51:42.394Z,100342.25
2023-04-11T14:54:10.392Z,100356.09
2023-04-11T14:56:38.731Z,100356.75
2023-04-11T14:59:07.735Z,100343.31
2023-04-11T15:01:37.118Z,100358.50
2023-04-11T15:04:08.167Z,100347.75
2023-04-11T15:06:36.255Z,100333.41
2023-04-11T15:09:04.817Z,100334.19
2023-04-11T15:11:36.017Z,100317.38
2023-04-11T15:14:06.998Z,100340.03
2023-04-11T15:16:36.393Z,100321.31
2023-04-11T15:19:08.559Z,100324.81
2023-04-11T15:21:38.337Z,100335.63
2023-04-11T15:24:11.403Z,100320.00
2023-04-11T15:26:44.983Z,100317.13
2023-04-11T15:29:20.474Z,100308.56
2023-04-11T15:31:50.327Z,100318.81
2023-04-11T15:34:23.212Z,100315.06
2023-04-11T15:36:51.572Z,100319.47
2023-04-11T15:39:19.464Z,100316.78
2023-04-11T15:41:49.462Z,100308.16
2023-04-11T15:44:18.284Z,100315.44
2023-04-11T15:46:49.471Z,100313.94
2023-04-11T15:49:18.918Z,100316.53
2023-04-11T15:51:48.698Z,100309.72
2023-04-11T15:54:24.042Z,100312.19
2023-04-11T15:56:52.588Z,100310.59
2023-04-11T15:59:20.831Z,100311.44
2023-04-11T16:01:49.057Z,100296.56
2023-04-11T16:04:19.835Z,100304.63
2023-04-11T16:06:48.594Z,100311.56
2023-04-11T16:09:17.439Z,100304.34
2023-04-11T16:11:52.155Z,100307.50
2023-04-11T16:14:22.067Z,100300.69
2023-04-11T16:16:50.137Z,100304.22
2023-04-11T16:19:19.671Z,100296.28
2023-04-11T16:21:49.455Z,100297.44
2023-04-11T16:24:19.003Z,100290.41
2023-04-11T16:26:46.921Z,100292.25
2023-04-11T16:29:15.300Z,100291.75
2023-04-11T16:31:43.698Z,100290.22
2023-04-11T16:34:12.215Z,100287.53
2023-04-11T16:36:40.160Z,100277.47
2023-04-11T16:39:10.009Z,100289.75
2023-04-11T16:41:39.355Z,100284.88
2023-04-11T16:44:11.487Z,100269.31
2023-04-11T16:46:42.512Z,100266.91
2023-04-11T16:49:11.413Z,100276.50
2023-04-11T16:51:43.494Z,100262.91
2023-04-11T16:54:12.360Z,100269.03
2023-04-11T16:56:59.089Z,100273.75
2023-04-11T16:59:47.325Z,100268.56
2023-04-11T17:02:36.434Z,100268.09
2023-04-11T17:05:25.649Z,100267.31
2023-04-11T17:08:17.137Z,100263.00
2023-04-11T17:11:08.575Z,100256.94
2023-04-11T17:13:57.092Z,100260.78
2023-04-11T17:16:47.216Z,100257.25
2023-04-11T17:19:36.126Z,100261.84
2023-04-11T17:22:28.412Z,100262.78
2023-04-11T17:25:17.278Z,100254.94
2023-04-11T17:28:07.917Z,100256.19
2023-04-11T17:30:57.501Z,100254.81
2023-04-11T17:33:45.932Z,100248.97
2023-04-11T17:36:37.438Z,100245.56
2023-04-11T17:39:26.871Z,100247.88
2023-04-11T17:42:15.098Z,100245.09
2023-04-11T17:44:45.017Z,100242.41
2023-04-11T17:47:13.150Z,100231.00
2023-04-11T17:49:41.389Z,100247.88
2023-04-11T17:52:10.390Z,100248.81
2023-04-11T17:54:38.740Z,100241.81
2023-04-11T17:57:07.239Z,100245.47
2023-04-11T17:59:35.250Z,100237.97
2023-04-11T18:02:07.482Z,100246.88
2023-04-11T18:04:35.607Z,100242.94
2023-04-11T18:07:03.826Z,100243.19
2023-04-11T18:09:36.243Z,100249.91
2023-04-11T18:12:04.180Z,100257.63
2023-04-11T18:14:33.925Z,100257.44
2023-04-11T18:17:03.766Z,100243.41
2023-04-11T18:19:33.594Z,100251.78
2023-04-11T18:22:01.506Z,100254.03
2023-04-11T18:24:48.501Z,100252.19
2023-04-11T18:27:40.744Z,100258.53
2023-04-11T18:30:30.837Z,100262.22
2023-04-11T18:33:20.637Z,100255.56
2023-04-11T18:36:09.301Z,100267.00
2023-04-11T18:38:58.199Z,100270.81
2023-04-11T18:41:48.343Z,100261.41
2023-04-11T18:44:41.398Z,100274.81
2023-04-11T18:47:29.817Z,100266.94
2023-04-11T18:50:20.085Z,100258.03
2023-04-11T18:53:11.851Z,100251.91
2023-04-11T18:55:42.912Z,100250.06
2023-04-11T18:58:14.107Z,100249.25
2023-04-11T19:00:44.668Z,100252.28
2023-04-11T19:03:15.093Z,100256.63
2023-04-11T19:06:06.421Z,100253.41
2023-04-11T19:08:54.903Z,100256.28
2023-04-11T19:11:43.587Z,100257.19
2023-04-11T19:14:11.769Z,100251.78
2023-04-11T19:16:40.183Z,100249.97
2023-04-11T19:19:08.410Z,100242.28
2023-04-11T19:21:38.752Z,100250.97
2023-04-11T19:24:07.000Z,100238.81
2023-04-11T19:26:35.225Z,100216.84
2023-04-11T19:29:04.626Z,100228.09
2023-04-11T19:31:32.808Z,100228.19
2023-04-11T19:34:00.952Z,100218.84
2023-04-11T19:36:29.672Z,100227.75
2023-04-11T19:38:58.025Z,100229.28
2023-04-11T19:41:26.165Z,100218.94
2023-04-11T19:43:55.335Z,100218.06
2023-04-11T19:46:24.712Z,100215.47
2023-04-11T19:48:52.758Z,100212.53
2023-04-11T19:51:21.364Z,100205.78
2023-04-11T19:53:49.639Z,100217.03
2023-04-11T19:56:17.874Z,100209.06
2023-04-11T19:58:46.776Z,100207.34
2023-04-11T20:01:18.894Z,100192.22
2023-04-11T20:03:46.899Z,100192.41
2023-04-11T20:06:15.267Z,100195.19
2023-04-11T20:08:43.676Z,100198.88
2023-04-11T20:11:15.732Z,100199.03
2023-04-11T20:13:44.844Z,100184.63
2023-04-11T20:16:14.239Z,100175.88
2023-04-11T20:18:42.802Z,100174.22
2023-04-11T20:21:11.999Z,100175.78
2023-04-11T20:23:41.726Z,100157.56
2023-04-11T20:26:11.244Z,100166.03
2023-04-11T20:28:39.547Z,100150.41
2023-04-11T20:31:08.670Z,100154.81
2023-04-11T20:33:36.962Z,100144.34
2023-04-11T20:36:06.433Z,100158.16
2023-04-11T20:38:34.542Z,100142.28
2023-04-11T20:41:05.659Z,100130.97
2023-04-11T20:43:33.932Z,100140.72
2023-04-11T20:46:08.515Z,100126.56
2023-04-11T20:48:37.693Z,100128.19
2023-04-11T20:51:08.002Z,100122.75
2023-04-11T20:53:40.974Z,100131.66
2023-04-11T20:56:13.335Z,100130.78
2023-04-11T20:58:41.474Z,100108.00
2023-04-11T21:01:10.409Z,100119.31
2023-04-11T21:03:42.523Z,100112.50
2023-04-11T21:06:13.056Z,100104.56
2023-04-11T21:08:41.990Z,100111.78
2023-04-11T21:11:10.403Z,100103.50
2023-04-11T21:13:39.775Z,100100.97
2023-04-11T21:16:10.108Z,100094.88
2023-04-11T21:18:38.522Z,100095.81
2023-04-11T21:21:07.740Z,100091.06
2023-04-11T21:23:36.925Z,100085.13
2023-04-11T21:26:05.258Z,100086.94
2023-04-11T21:28:33.329Z,100080.09
2023-04-11T21:31:01.517Z,100096.59
2023-04-11T21:33:29.761Z,100083.28
2023-04-11T21:35:58.413Z,100074.75
2023-04-11T21:38:26.863Z,100059.88
2023-04-11T21:40:56.869Z,100066.63
2023-04-11T21:43:25.104Z,100057.19
2023-04-11T21:45:53.066Z,100051.78
2023-04-11T21:48:21.494Z,100050.72
2023-04-11T21:50:49.595Z,100044.72
2023-04-11T21:53:18.274Z,100037.81
2023-04-11T21:55:47.096Z,100029.84
2023-04-11T21:58:27.914Z,100023.25
2023-04-11T22:00:57.509Z,100027.56
2023-04-11T22:03:26.977Z,100011.94
2023-04-11T22:05:56.576Z,100016.78
2023-04-11T22:08:29.369Z,100013.34
2023-04-11T22:10:57.910Z,100006.34
2023-04-11T22:13:26.113Z,100011.28
2023-04-11T22:16:05.374Z,100009.59
2023-04-11T22:18:50.001Z,100009.53
2023-04-11T22:21:20.540Z,100005.00
2023-04-11T22:23:55.618Z,99991.44
2023-04-11T22:26:29.521Z,99987.00
2023-04-11T22:28:58.428Z,99973.00
2023-04-11T22:31:39.066Z,99978.97
2023-04-11T22:34:10.586Z,99968.59
2023-04-11T22:36:59.217Z,99965.16
2023-04-11T22:39:27.309Z,99950.84
2023-04-11T22:41:56.461Z,99951.69
2023-04-11T22:44:24.908Z,99951.59
2023-04-11T22:47:08.712Z,99959.41
2023-04-11T22:49:42.938Z,99954.28
2023-04-11T22:52:15.223Z,99955.84
2023-04-11T22:54:44.127Z,99954.91
2023-04-11T22:57:12.233Z,99945.25
2023-04-11T22:59:41.339Z,99948.69
2023-04-11T23:02:09.700Z,99960.00
2023-04-11T23:04:38.240Z,99952.06
2023-04-11T23:07:06.203Z,99943.84
2023-04-11T23:09:34.554Z,99955.84
2023-04-11T23:12:02.602Z,99960.44
2023-04-11T23:14:32.002Z,99944.53
2023-04-11T23:17:00.444Z,99935.75
2023-04-11T23:19:30.042Z,99934.94
2023-04-11T23:21:59.539Z,99931.41
2023-04-11T23:24:29.441Z,99926.41
2023-04-11T23:26:58.612Z,99919.09
2023-04-11T23:29:27.578Z,99923.06
2023-04-11T23:31:56.097Z,99915.22
2023-04-11T23:34:25.391Z,99931.88
2023-04-11T23:36:53.434Z,99919.88
2023-04-11T23:39:21.647Z,99923.16
2023-04-11T23:41:52.700Z,99925.56
2023-04-11T23:44:20.721Z,99910.63
2023-04-11T23:46:49.552Z,99916.69
2023-04-11T23:49:17.428Z,99924.69
2023-04-11T23:51:45.330Z,99925.41
2023-04-11T23:54:14.126Z,99930.44
2023-04-11T23:56:43.726Z,99941.84
2023-04-11T23:59:12.135Z,99938.41
